sensor_id;sensor_type;location;lat;lon;timestamp;P1;durP1;ratioP1;P2;durP2;ratioP2
37655;SDS011;23498;50.958;3.124;2023-02-23T00:01:58;75.60;;;34.47;;
37655;SDS011;23498;50.958;3.124;2023-02-23T00:04:50;74.75;;;34.75;;
37655;SDS011;23498;50.958;3.124;2023-02-23T00:07:35;71.38;;;32.60;;
37655;SDS011;23498;50.958;3.124;2023-02-23T00:10:09;78.47;;;34.45;;
37655;SDS011;23498;50.958;3.124;2023-02-23T00:12:57;65.53;;;32.53;;
37655;SDS011;23498;50.958;3.124;2023-02-23T00:15:44;69.70;;;33.13;;
37655;SDS011;23498;50.958;3.124;2023-02-23T00:18:51;71.53;;;33.60;;
37655;SDS011;23498;50.958;3.124;2023-02-23T00:21:53;70.75;;;33.35;;
37655;SDS011;23498;50.958;3.124;2023-02-23T00:24:30;75.45;;;34.55;;
37655;SDS011;23498;50.958;3.124;2023-02-23T00:26:56;75.30;;;35.33;;
37655;SDS011;23498;50.958;3.124;2023-02-23T00:29:42;79.45;;;35.25;;
37655;SDS011;23498;50.958;3.124;2023-02-23T00:32:17;80.00;;;36.17;;
37655;SDS011;23498;50.958;3.124;2023-02-23T00:35:04;78.40;;;34.75;;
37655;SDS011;23498;50.958;3.124;2023-02-23T00:38:18;70.00;;;32.60;;
37655;SDS011;23498;50.958;3.124;2023-02-23T00:41:09;71.32;;;34.97;;
37655;SDS011;23498;50.958;3.124;2023-02-23T00:43:58;76.47;;;34.20;;
37655;SDS011;23498;50.958;3.124;2023-02-23T00:46:25;73.38;;;34.38;;
37655;SDS011;23498;50.958;3.124;2023-02-23T00:48:54;68.68;;;32.67;;
37655;SDS011;23498;50.958;3.124;2023-02-23T00:51:20;68.75;;;33.33;;
37655;SDS011;23498;50.958;3.124;2023-02-23T00:54:16;68.05;;;33.38;;
37655;SDS011;23498;50.958;3.124;2023-02-23T00:56:56;65.05;;;33.47;;
37655;SDS011;23498;50.958;3.124;2023-02-23T01:02:48;71.68;;;33.63;;
37655;SDS011;23498;50.958;3.124;2023-02-23T01:05:19;67.57;;;33.45;;
37655;SDS011;23498;50.958;3.124;2023-02-23T01:07:47;69.60;;;33.25;;
37655;SDS011;23498;50.958;3.124;2023-02-23T01:10:16;67.75;;;33.63;;
37655;SDS011;23498;50.958;3.124;2023-02-23T01:12:48;67.43;;;33.13;;
37655;SDS011;23498;50.958;3.124;2023-02-23T01:15:15;63.33;;;32.53;;
37655;SDS011;23498;50.958;3.124;2023-02-23T01:17:44;63.90;;;31.85;;
37655;SDS011;23498;50.958;3.124;2023-02-23T01:20:11;62.55;;;31.65;;
37655;SDS011;23498;50.958;3.124;2023-02-23T01:22:44;65.20;;;33.50;;
37655;SDS011;23498;50.958;3.124;2023-02-23T01:25:24;63.28;;;29.77;;
37655;SDS011;23498;50.958;3.124;2023-02-23T01:27:57;65.97;;;32.75;;
37655;SDS011;23498;50.958;3.124;2023-02-23T01:30:28;64.75;;;32.55;;
37655;SDS011;23498;50.958;3.124;2023-02-23T01:32:57;68.32;;;34.05;;
37655;SDS011;23498;50.958;3.124;2023-02-23T01:39:25;58.60;;;29.92;;
37655;SDS011;23498;50.958;3.124;2023-02-23T01:57:17;60.22;;;31.25;;
37655;SDS011;23498;50.958;3.124;2023-02-23T01:59:59;61.55;;;32.28;;
37655;SDS011;23498;50.958;3.124;2023-02-23T02:08:03;63.72;;;31.55;;
37655;SDS011;23498;50.958;3.124;2023-02-23T02:10:35;60.80;;;30.80;;
37655;SDS011;23498;50.958;3.124;2023-02-23T02:13:33;65.25;;;31.48;;
37655;SDS011;23498;50.958;3.124;2023-02-23T02:16:23;63.95;;;32.67;;
37655;SDS011;23498;50.958;3.124;2023-02-23T02:35:32;59.13;;;31.10;;
37655;SDS011;23498;50.958;3.124;2023-02-23T02:41:02;65.72;;;31.70;;
37655;SDS011;23498;50.958;3.124;2023-02-23T02:43:36;59.58;;;31.10;;
37655;SDS011;23498;50.958;3.124;2023-02-23T02:51:48;60.15;;;31.63;;
37655;SDS011;23498;50.958;3.124;2023-02-23T02:54:31;59.75;;;31.48;;
37655;SDS011;23498;50.958;3.124;2023-02-23T02:57:11;60.13;;;31.17;;
37655;SDS011;23498;50.958;3.124;2023-02-23T02:59:47;61.42;;;31.70;;
37655;SDS011;23498;50.958;3.124;2023-02-23T03:02:44;60.97;;;31.23;;
37655;SDS011;23498;50.958;3.124;2023-02-23T03:05:49;63.08;;;31.80;;
37655;SDS011;23498;50.958;3.124;2023-02-23T03:08:40;60.03;;;31.10;;
37655;SDS011;23498;50.958;3.124;2023-02-23T03:11:34;66.07;;;32.67;;
37655;SDS011;23498;50.958;3.124;2023-02-23T03:17:35;67.10;;;33.42;;
37655;SDS011;23498;50.958;3.124;2023-02-23T03:32:08;61.83;;;32.85;;
37655;SDS011;23498;50.958;3.124;2023-02-23T03:34:59;59.97;;;30.40;;
37655;SDS011;23498;50.958;3.124;2023-02-23T03:37:47;62.28;;;32.30;;
37655;SDS011;23498;50.958;3.124;2023-02-23T03:40:36;64.65;;;31.27;;
37655;SDS011;23498;50.958;3.124;2023-02-23T03:46:27;61.25;;;31.30;;
37655;SDS011;23498;50.958;3.124;2023-02-23T03:49:18;58.83;;;30.75;;
37655;SDS011;23498;50.958;3.124;2023-02-23T03:52:08;69.50;;;33.47;;
37655;SDS011;23498;50.958;3.124;2023-02-23T03:54:56;61.92;;;31.45;;
37655;SDS011;23498;50.958;3.124;2023-02-23T04:29:33;67.55;;;32.47;;
37655;SDS011;23498;50.958;3.124;2023-02-23T08:21:29;109.85;;;41.17;;
37655;SDS011;23498;50.958;3.124;2023-02-23T08:23:55;110.38;;;41.97;;
37655;SDS011;23498;50.958;3.124;2023-02-23T08:37:16;108.70;;;39.72;;
37655;SDS011;23498;50.958;3.124;2023-02-23T08:39:44;103.95;;;40.63;;
37655;SDS011;23498;50.958;3.124;2023-02-23T08:42:11;104.70;;;39.13;;
37655;SDS011;23498;50.958;3.124;2023-02-23T08:44:42;105.75;;;40.40;;
37655;SDS011;23498;50.958;3.124;2023-02-23T08:47:11;102.90;;;39.20;;
37655;SDS011;23498;50.958;3.124;2023-02-23T08:49:53;99.47;;;37.38;;
37655;SDS011;23498;50.958;3.124;2023-02-23T08:55:28;92.32;;;34.83;;
37655;SDS011;23498;50.958;3.124;2023-02-23T08:58:19;95.07;;;37.45;;
37655;SDS011;23498;50.958;3.124;2023-02-23T09:13:09;103.35;;;37.58;;
37655;SDS011;23498;50.958;3.124;2023-02-23T09:15:56;111.53;;;36.65;;
37655;SDS011;23498;50.958;3.124;2023-02-23T09:18:22;108.10;;;36.88;;
37655;SDS011;23498;50.958;3.124;2023-02-23T09:20:53;109.10;;;39.15;;
37655;SDS011;23498;50.958;3.124;2023-02-23T09:23:19;115.45;;;37.03;;
37655;SDS011;23498;50.958;3.124;2023-02-23T09:25:45;111.30;;;37.92;;
37655;SDS011;23498;50.958;3.124;2023-02-23T09:28:14;110.65;;;37.38;;
37655;SDS011;23498;50.958;3.124;2023-02-23T09:30:42;103.82;;;37.75;;
37655;SDS011;23498;50.958;3.124;2023-02-23T09:33:10;100.38;;;38.40;;
37655;SDS011;23498;50.958;3.124;2023-02-23T09:35:37;99.07;;;37.67;;
37655;SDS011;23498;50.958;3.124;2023-02-23T09:38:06;103.60;;;38.28;;
37655;SDS011;23498;50.958;3.124;2023-02-23T09:40:35;97.63;;;36.42;;
37655;SDS011;23498;50.958;3.124;2023-02-23T09:45:41;102.47;;;38.40;;
37655;SDS011;23498;50.958;3.124;2023-02-23T09:50:52;101.43;;;38.08;;
37655;SDS011;23498;50.958;3.124;2023-02-23T09:53:23;99.25;;;36.25;;
37655;SDS011;23498;50.958;3.124;2023-02-23T09:55:59;95.25;;;35.38;;
37655;SDS011;23498;50.958;3.124;2023-02-23T09:59:03;92.57;;;34.17;;
37655;SDS011;23498;50.958;3.124;2023-02-23T10:02:06;99.72;;;35.20;;
37655;SDS011;23498;50.958;3.124;2023-02-23T10:38:43;75.10;;;28.42;;
37655;SDS011;23498;50.958;3.124;2023-02-23T11:10:22;54.30;;;23.38;;
37655;SDS011;23498;50.958;3.124;2023-02-23T11:17:58;61.08;;;24.35;;
37655;SDS011;23498;50.958;3.124;2023-02-23T11:20:30;60.33;;;25.67;;
37655;SDS011;23498;50.958;3.124;2023-02-23T11:23:00;65.72;;;27.50;;
37655;SDS011;23498;50.958;3.124;2023-02-23T11:25:33;59.60;;;25.52;;
37655;SDS011;23498;50.958;3.124;2023-02-23T11:27:59;62.95;;;24.52;;
37655;SDS011;23498;50.958;3.124;2023-02-23T11:30:35;54.80;;;25.10;;
37655;SDS011;23498;50.958;3.124;2023-02-23T11:33:07;51.50;;;23.20;;
37655;SDS011;23498;50.958;3.124;2023-02-23T11:35:41;54.38;;;24.25;;
37655;SDS011;23498;50.958;3.124;2023-02-23T11:38:20;53.78;;;23.02;;
37655;SDS011;23498;50.958;3.124;2023-02-23T11:40:57;52.45;;;24.55;;
37655;SDS011;23498;50.958;3.124;2023-02-23T11:43:24;53.65;;;24.13;;
37655;SDS011;23498;50.958;3.124;2023-02-23T11:45:57;53.92;;;25.25;;
37655;SDS011;23498;50.958;3.124;2023-02-23T11:48:25;53.95;;;24.42;;
37655;SDS011;23498;50.958;3.124;2023-02-23T12:12:14;48.83;;;20.92;;
37655;SDS011;23498;50.958;3.124;2023-02-23T12:17:48;45.78;;;21.30;;
37655;SDS011;23498;50.958;3.124;2023-02-23T12:20:36;42.78;;;18.90;;
37655;SDS011;23498;50.958;3.124;2023-02-23T12:32:25;36.38;;;17.05;;
37655;SDS011;23498;50.958;3.124;2023-02-23T12:41:10;36.92;;;17.27;;
37655;SDS011;23498;50.958;3.124;2023-02-23T12:46:38;37.70;;;16.70;;
37655;SDS011;23498;50.958;3.124;2023-02-23T12:51:51;35.75;;;16.27;;
37655;SDS011;23498;50.958;3.124;2023-02-23T12:54:32;36.05;;;16.80;;
37655;SDS011;23498;50.958;3.124;2023-02-23T13:05:35;33.75;;;16.02;;
37655;SDS011;23498;50.958;3.124;2023-02-23T13:32:01;32.40;;;15.93;;
37655;SDS011;23498;50.958;3.124;2023-02-23T13:50:13;26.50;;;14.30;;
37655;SDS011;23498;50.958;3.124;2023-02-23T13:56:22;23.90;;;12.02;;
37655;SDS011;23498;50.958;3.124;2023-02-23T14:02:19;24.00;;;13.02;;
37655;SDS011;23498;50.958;3.124;2023-02-23T14:16:18;21.40;;;11.07;;
37655;SDS011;23498;50.958;3.124;2023-02-23T14:21:57;19.88;;;11.00;;
37655;SDS011;23498;50.958;3.124;2023-02-23T14:24:33;17.50;;;9.65;;
37655;SDS011;23498;50.958;3.124;2023-02-23T14:32:28;16.25;;;9.07;;
37655;SDS011;23498;50.958;3.124;2023-02-23T14:34:55;15.48;;;8.75;;
37655;SDS011;23498;50.958;3.124;2023-02-23T14:39:49;15.88;;;8.50;;
37655;SDS011;23498;50.958;3.124;2023-02-23T14:42:26;15.95;;;8.45;;
37655;SDS011;23498;50.958;3.124;2023-02-23T14:47:55;14.77;;;8.00;;
37655;SDS011;23498;50.958;3.124;2023-02-23T14:50:32;13.48;;;7.32;;
37655;SDS011;23498;50.958;3.124;2023-02-23T14:53:17;14.65;;;7.72;;
37655;SDS011;23498;50.958;3.124;2023-02-23T14:56:20;13.02;;;7.55;;
37655;SDS011;23498;50.958;3.124;2023-02-23T14:58:57;15.57;;;7.78;;
37655;SDS011;23498;50.958;3.124;2023-02-23T15:04:19;12.93;;;7.03;;
37655;SDS011;23498;50.958;3.124;2023-02-23T15:07:00;14.15;;;7.40;;
37655;SDS011;23498;50.958;3.124;2023-02-23T15:09:53;12.85;;;6.50;;
37655;SDS011;23498;50.958;3.124;2023-02-23T15:12:24;11.88;;;6.85;;
37655;SDS011;23498;50.958;3.124;2023-02-23T15:23:26;14.52;;;7.82;;
37655;SDS011;23498;50.958;3.124;2023-02-23T15:26:24;13.50;;;7.43;;
37655;SDS011;23498;50.958;3.124;2023-02-23T15:28:51;14.00;;;8.20;;
37655;SDS011;23498;50.958;3.124;2023-02-23T15:31:17;15.45;;;7.95;;
37655;SDS011;23498;50.958;3.124;2023-02-23T15:33:44;19.30;;;9.48;;
37655;SDS011;23498;50.958;3.124;2023-02-23T15:36:24;15.82;;;8.10;;
37655;SDS011;23498;50.958;3.124;2023-02-23T15:38:53;15.02;;;8.73;;
37655;SDS011;23498;50.958;3.124;2023-02-23T15:41:29;15.85;;;9.18;;
37655;SDS011;23498;50.958;3.124;2023-02-23T15:44:22;16.33;;;9.27;;
37655;SDS011;23498;50.958;3.124;2023-02-23T15:46:53;16.52;;;9.20;;
37655;SDS011;23498;50.958;3.124;2023-02-23T15:49:24;18.10;;;9.70;;
37655;SDS011;23498;50.958;3.124;2023-02-23T15:57:21;18.13;;;9.85;;
37655;SDS011;23498;50.958;3.124;2023-02-23T15:59:51;17.85;;;9.43;;
37655;SDS011;23498;50.958;3.124;2023-02-23T16:02:23;21.20;;;9.73;;
37655;SDS011;23498;50.958;3.124;2023-02-23T16:04:52;21.33;;;11.10;;
37655;SDS011;23498;50.958;3.124;2023-02-23T16:13:01;17.17;;;9.70;;
37655;SDS011;23498;50.958;3.124;2023-02-23T16:21:06;21.63;;;10.80;;
37655;SDS011;23498;50.958;3.124;2023-02-23T16:23:39;20.70;;;10.95;;
37655;SDS011;23498;50.958;3.124;2023-02-23T16:26:09;21.58;;;10.85;;
37655;SDS011;23498;50.958;3.124;2023-02-23T16:29:14;20.67;;;10.77;;
37655;SDS011;23498;50.958;3.124;2023-02-23T16:34:19;20.25;;;11.45;;
37655;SDS011;23498;50.958;3.124;2023-02-23T16:37:14;21.95;;;10.85;;
37655;SDS011;23498;50.958;3.124;2023-02-23T16:40:11;22.13;;;11.13;;
37655;SDS011;23498;50.958;3.124;2023-02-23T16:42:42;18.55;;;9.75;;
37655;SDS011;23498;50.958;3.124;2023-02-23T16:45:12;19.27;;;9.95;;
37655;SDS011;23498;50.958;3.124;2023-02-23T16:47:40;19.08;;;10.15;;
37655;SDS011;23498;50.958;3.124;2023-02-23T16:52:45;19.23;;;9.20;;
37655;SDS011;23498;50.958;3.124;2023-02-23T16:55:15;19.98;;;9.05;;
37655;SDS011;23498;50.958;3.124;2023-02-23T16:57:42;20.20;;;9.93;;
37655;SDS011;23498;50.958;3.124;2023-02-23T17:00:09;17.63;;;9.55;;
37655;SDS011;23498;50.958;3.124;2023-02-23T17:02:42;16.95;;;9.38;;
37655;SDS011;23498;50.958;3.124;2023-02-23T17:05:20;16.70;;;8.75;;
37655;SDS011;23498;50.958;3.124;2023-02-23T17:07:49;17.02;;;9.50;;
37655;SDS011;23498;50.958;3.124;2023-02-23T17:10:21;16.35;;;9.40;;
37655;SDS011;23498;50.958;3.124;2023-02-23T17:13:04;19.10;;;9.65;;
37655;SDS011;23498;50.958;3.124;2023-02-23T17:15:32;17.83;;;10.40;;
37655;SDS011;23498;50.958;3.124;2023-02-23T17:18:11;19.25;;;10.85;;
37655;SDS011;23498;50.958;3.124;2023-02-23T17:20:38;18.90;;;9.70;;
37655;SDS011;23498;50.958;3.124;2023-02-23T17:23:04;20.42;;;9.80;;
37655;SDS011;23498;50.958;3.124;2023-02-23T17:25:30;14.73;;;9.27;;
37655;SDS011;23498;50.958;3.124;2023-02-23T17:27:57;17.08;;;9.93;;
37655;SDS011;23498;50.958;3.124;2023-02-23T17:30:27;15.02;;;9.20;;
37655;SDS011;23498;50.958;3.124;2023-02-23T17:33:13;20.63;;;9.57;;
37655;SDS011;23498;50.958;3.124;2023-02-23T17:35:39;14.48;;;9.00;;
37655;SDS011;23498;50.958;3.124;2023-02-23T17:38:06;14.88;;;7.82;;
37655;SDS011;23498;50.958;3.124;2023-02-23T17:40:33;15.82;;;8.10;;
37655;SDS011;23498;50.958;3.124;2023-02-23T17:43:02;12.68;;;7.95;;
37655;SDS011;23498;50.958;3.124;2023-02-23T17:45:30;15.68;;;6.85;;
37655;SDS011;23498;50.958;3.124;2023-02-23T17:48:14;10.93;;;6.07;;
37655;SDS011;23498;50.958;3.124;2023-02-23T17:50:58;12.63;;;5.97;;
37655;SDS011;23498;50.958;3.124;2023-02-23T17:53:25;13.13;;;6.32;;
37655;SDS011;23498;50.958;3.124;2023-02-23T17:56:11;9.80;;;5.63;;
37655;SDS011;23498;50.958;3.124;2023-02-23T17:58:57;11.07;;;4.93;;
37655;SDS011;23498;50.958;3.124;2023-02-23T18:01:23;11.75;;;4.97;;
37655;SDS011;23498;50.958;3.124;2023-02-23T18:03:49;12.10;;;4.90;;
37655;SDS011;23498;50.958;3.124;2023-02-23T18:06:15;10.80;;;4.50;;
37655;SDS011;23498;50.958;3.124;2023-02-23T18:08:43;12.70;;;4.63;;
37655;SDS011;23498;50.958;3.124;2023-02-23T18:11:25;15.65;;;5.45;;
37655;SDS011;23498;50.958;3.124;2023-02-23T18:13:52;11.65;;;5.05;;
37655;SDS011;23498;50.958;3.124;2023-02-23T18:16:18;14.52;;;5.50;;
37655;SDS011;23498;50.958;3.124;2023-02-23T18:18:47;11.98;;;5.47;;
37655;SDS011;23498;50.958;3.124;2023-02-23T18:21:15;11.85;;;5.85;;
37655;SDS011;23498;50.958;3.124;2023-02-23T18:23:41;13.80;;;5.30;;
37655;SDS011;23498;50.958;3.124;2023-02-23T18:26:10;15.30;;;5.43;;
37655;SDS011;23498;50.958;3.124;2023-02-23T18:28:37;13.60;;;5.72;;
37655;SDS011;23498;50.958;3.124;2023-02-23T18:38:00;16.38;;;7.30;;
37655;SDS011;23498;50.958;3.124;2023-02-23T18:40:35;18.65;;;7.18;;
37655;SDS011;23498;50.958;3.124;2023-02-23T18:43:10;19.52;;;7.50;;
37655;SDS011;23498;50.958;3.124;2023-02-23T18:45:39;17.33;;;7.97;;
37655;SDS011;23498;50.958;3.124;2023-02-23T18:48:25;19.58;;;8.05;;
37655;SDS011;23498;50.958;3.124;2023-02-23T18:50:56;21.50;;;8.85;;
37655;SDS011;23498;50.958;3.124;2023-02-23T18:53:26;19.42;;;8.85;;
37655;SDS011;23498;50.958;3.124;2023-02-23T18:55:55;23.17;;;9.00;;
37655;SDS011;23498;50.958;3.124;2023-02-23T18:58:21;16.20;;;7.85;;
37655;SDS011;23498;50.958;3.124;2023-02-23T19:00:48;20.25;;;8.88;;
37655;SDS011;23498;50.958;3.124;2023-02-23T19:03:14;17.98;;;8.23;;
37655;SDS011;23498;50.958;3.124;2023-02-23T19:05:42;19.63;;;8.57;;
37655;SDS011;23498;50.958;3.124;2023-02-23T19:08:09;26.98;;;8.65;;
37655;SDS011;23498;50.958;3.124;2023-02-23T19:10:37;23.02;;;7.80;;
37655;SDS011;23498;50.958;3.124;2023-02-23T19:13:04;23.70;;;6.57;;
37655;SDS011;23498;50.958;3.124;2023-02-23T19:15:33;19.13;;;7.00;;
37655;SDS011;23498;50.958;3.124;2023-02-23T19:18:01;23.90;;;6.82;;
37655;SDS011;23498;50.958;3.124;2023-02-23T19:20:28;20.10;;;6.15;;
37655;SDS011;23498;50.958;3.124;2023-02-23T19:23:00;17.55;;;5.43;;
37655;SDS011;23498;50.958;3.124;2023-02-23T19:25:27;19.15;;;5.68;;
37655;SDS011;23498;50.958;3.124;2023-02-23T19:27:53;22.00;;;5.72;;
37655;SDS011;23498;50.958;3.124;2023-02-23T19:30:19;20.63;;;4.93;;
37655;SDS011;23498;50.958;3.124;2023-02-23T19:32:45;17.13;;;4.80;;
37655;SDS011;23498;50.958;3.124;2023-02-23T19:35:12;24.10;;;4.97;;
37655;SDS011;23498;50.958;3.124;2023-02-23T19:37:44;20.88;;;5.45;;
37655;SDS011;23498;50.958;3.124;2023-02-23T19:40:15;18.83;;;4.43;;
37655;SDS011;23498;50.958;3.124;2023-02-23T19:42:43;22.63;;;5.35;;
37655;SDS011;23498;50.958;3.124;2023-02-23T19:45:13;19.98;;;5.55;;
37655;SDS011;23498;50.958;3.124;2023-02-23T19:47:39;23.08;;;5.25;;
37655;SDS011;23498;50.958;3.124;2023-02-23T19:50:08;25.05;;;5.18;;
37655;SDS011;23498;50.958;3.124;2023-02-23T19:52:34;22.88;;;5.47;;
37655;SDS011;23498;50.958;3.124;2023-02-23T19:55:03;24.75;;;5.18;;
37655;SDS011;23498;50.958;3.124;2023-02-23T19:57:30;25.30;;;6.00;;
37655;SDS011;23498;50.958;3.124;2023-02-23T19:59:57;27.58;;;4.78;;
37655;SDS011;23498;50.958;3.124;2023-02-23T20:02:23;24.55;;;5.18;;
37655;SDS011;23498;50.958;3.124;2023-02-23T20:04:49;26.67;;;6.18;;
37655;SDS011;23498;50.958;3.124;2023-02-23T20:07:15;25.42;;;4.50;;
37655;SDS011;23498;50.958;3.124;2023-02-23T20:09:41;20.23;;;4.20;;
37655;SDS011;23498;50.958;3.124;2023-02-23T20:12:08;22.00;;;4.10;;
37655;SDS011;23498;50.958;3.124;2023-02-23T20:14:34;22.48;;;4.32;;
37655;SDS011;23498;50.958;3.124;2023-02-23T20:17:00;25.15;;;4.30;;
37655;SDS011;23498;50.958;3.124;2023-02-23T20:19:26;19.48;;;4.30;;
37655;SDS011;23498;50.958;3.124;2023-02-23T20:21:53;24.92;;;4.45;;
37655;SDS011;23498;50.958;3.124;2023-02-23T20:24:19;22.55;;;4.15;;
37655;SDS011;23498;50.958;3.124;2023-02-23T20:26:45;20.05;;;4.22;;
37655;SDS011;23498;50.958;3.124;2023-02-23T20:29:14;21.13;;;4.60;;
37655;SDS011;23498;50.958;3.124;2023-02-23T20:31:47;28.77;;;4.80;;
37655;SDS011;23498;50.958;3.124;2023-02-23T20:34:16;26.52;;;5.03;;
37655;SDS011;23498;50.958;3.124;2023-02-23T20:36:45;24.05;;;4.75;;
37655;SDS011;23498;50.958;3.124;2023-02-23T20:39:31;20.15;;;4.00;;
37655;SDS011;23498;50.958;3.124;2023-02-23T20:41:58;21.90;;;4.72;;
37655;SDS011;23498;50.958;3.124;2023-02-23T20:44:24;24.42;;;4.82;;
37655;SDS011;23498;50.958;3.124;2023-02-23T20:46:53;23.27;;;5.07;;
37655;SDS011;23498;50.958;3.124;2023-02-23T20:49:19;25.40;;;4.68;;
37655;SDS011;23498;50.958;3.124;2023-02-23T20:51:47;28.75;;;5.13;;
37655;SDS011;23498;50.958;3.124;2023-02-23T20:54:14;19.67;;;4.20;;
37655;SDS011;23498;50.958;3.124;2023-02-23T20:56:44;25.15;;;4.22;;
37655;SDS011;23498;50.958;3.124;2023-02-23T20:59:10;20.80;;;4.10;;
37655;SDS011;23498;50.958;3.124;2023-02-23T21:01:38;21.25;;;4.05;;
37655;SDS011;23498;50.958;3.124;2023-02-23T21:04:04;17.30;;;3.78;;
37655;SDS011;23498;50.958;3.124;2023-02-23T21:06:31;20.48;;;5.13;;
37655;SDS011;23498;50.958;3.124;2023-02-23T21:08:57;20.17;;;4.25;;
37655;SDS011;23498;50.958;3.124;2023-02-23T21:11:28;27.73;;;4.15;;
37655;SDS011;23498;50.958;3.124;2023-02-23T21:13:55;18.13;;;3.13;;
37655;SDS011;23498;50.958;3.124;2023-02-23T21:16:22;16.90;;;3.65;;
37655;SDS011;23498;50.958;3.124;2023-02-23T21:18:49;26.38;;;4.88;;
37655;SDS011;23498;50.958;3.124;2023-02-23T21:21:36;20.63;;;3.15;;
37655;SDS011;23498;50.958;3.124;2023-02-23T21:24:02;17.35;;;3.45;;
37655;SDS011;23498;50.958;3.124;2023-02-23T21:26:28;21.10;;;3.20;;
37655;SDS011;23498;50.958;3.124;2023-02-23T21:28:54;17.42;;;3.45;;
37655;SDS011;23498;50.958;3.124;2023-02-23T21:31:22;16.20;;;3.72;;
37655;SDS011;23498;50.958;3.124;2023-02-23T21:33:49;17.80;;;3.55;;
37655;SDS011;23498;50.958;3.124;2023-02-23T21:36:15;20.42;;;3.92;;
37655;SDS011;23498;50.958;3.124;2023-02-23T21:38:42;19.77;;;3.38;;
37655;SDS011;23498;50.958;3.124;2023-02-23T21:41:12;20.27;;;3.30;;
37655;SDS011;23498;50.958;3.124;2023-02-23T21:43:40;21.58;;;3.60;;
37655;SDS011;23498;50.958;3.124;2023-02-23T21:46:13;19.13;;;3.40;;
37655;SDS011;23498;50.958;3.124;2023-02-23T21:48:42;19.88;;;3.67;;
37655;SDS011;23498;50.958;3.124;2023-02-23T21:51:12;18.05;;;3.70;;
37655;SDS011;23498;50.958;3.124;2023-02-23T21:53:42;19.85;;;2.95;;
37655;SDS011;23498;50.958;3.124;2023-02-23T21:56:12;18.45;;;4.38;;
37655;SDS011;23498;50.958;3.124;2023-02-23T21:58:58;19.52;;;3.45;;
37655;SDS011;23498;50.958;3.124;2023-02-23T22:01:25;17.58;;;3.13;;
37655;SDS011;23498;50.958;3.124;2023-02-23T22:03:52;16.08;;;3.85;;
37655;SDS011;23498;50.958;3.124;2023-02-23T22:06:24;20.15;;;3.50;;
37655;SDS011;23498;50.958;3.124;2023-02-23T22:08:50;17.33;;;3.80;;
37655;SDS011;23498;50.958;3.124;2023-02-23T22:11:18;20.23;;;4.18;;
37655;SDS011;23498;50.958;3.124;2023-02-23T22:13:54;21.58;;;3.67;;
37655;SDS011;23498;50.958;3.124;2023-02-23T22:16:24;22.40;;;4.10;;
37655;SDS011;23498;50.958;3.124;2023-02-23T22:18:50;16.40;;;3.10;;
37655;SDS011;23498;50.958;3.124;2023-02-23T22:21:18;14.27;;;2.78;;
37655;SDS011;23498;50.958;3.124;2023-02-23T22:23:47;16.10;;;3.03;;
37655;SDS011;23498;50.958;3.124;2023-02-23T22:26:19;30.65;;;4.40;;
37655;SDS011;23498;50.958;3.124;2023-02-23T22:29:19;18.83;;;3.10;;
37655;SDS011;23498;50.958;3.124;2023-02-23T22:31:46;21.70;;;3.22;;
37655;SDS011;23498;50.958;3.124;2023-02-23T22:34:12;11.70;;;3.00;;
37655;SDS011;23498;50.958;3.124;2023-02-23T22:36:38;15.52;;;2.90;;
37655;SDS011;23498;50.958;3.124;2023-02-23T22:39:05;16.17;;;2.70;;
37655;SDS011;23498;50.958;3.124;2023-02-23T22:41:43;18.20;;;3.00;;
37655;SDS011;23498;50.958;3.124;2023-02-23T22:44:14;18.38;;;2.72;;
37655;SDS011;23498;50.958;3.124;2023-02-23T22:46:48;18.70;;;2.80;;
37655;SDS011;23498;50.958;3.124;2023-02-23T22:49:16;12.90;;;2.40;;
37655;SDS011;23498;50.958;3.124;2023-02-23T22:51:44;26.13;;;4.22;;
37655;SDS011;23498;50.958;3.124;2023-02-23T22:54:10;18.33;;;3.13;;
37655;SDS011;23498;50.958;3.124;2023-02-23T22:56:37;17.15;;;3.55;;
37655;SDS011;23498;50.958;3.124;2023-02-23T22:59:06;17.02;;;3.15;;
37655;SDS011;23498;50.958;3.124;2023-02-23T23:01:33;12.55;;;3.15;;
37655;SDS011;23498;50.958;3.124;2023-02-23T23:03:59;11.05;;;2.80;;
37655;SDS011;23498;50.958;3.124;2023-02-23T23:06:30;27.03;;;5.00;;
37655;SDS011;23498;50.958;3.124;2023-02-23T23:08:56;15.63;;;2.95;;
37655;SDS011;23498;50.958;3.124;2023-02-23T23:11:23;19.40;;;3.45;;
37655;SDS011;23498;50.958;3.124;2023-02-23T23:13:51;13.43;;;2.67;;
37655;SDS011;23498;50.958;3.124;2023-02-23T23:16:19;17.05;;;3.00;;
37655;SDS011;23498;50.958;3.124;2023-02-23T23:18:48;10.55;;;2.78;;
37655;SDS011;23498;50.958;3.124;2023-02-23T23:21:16;15.07;;;2.97;;
37655;SDS011;23498;50.958;3.124;2023-02-23T23:23:46;14.95;;;3.03;;
37655;SDS011;23498;50.958;3.124;2023-02-23T23:26:17;14.73;;;3.30;;
37655;SDS011;23498;50.958;3.124;2023-02-23T23:29:00;11.77;;;2.97;;
37655;SDS011;23498;50.958;3.124;2023-02-23T23:31:30;16.00;;;2.70;;
37655;SDS011;23498;50.958;3.124;2023-02-23T23:33:57;14.55;;;2.45;;
37655;SDS011;23498;50.958;3.124;2023-02-23T23:36:25;14.55;;;2.58;;
37655;SDS011;23498;50.958;3.124;2023-02-23T23:38:54;11.82;;;2.25;;
37655;SDS011;23498;50.958;3.124;2023-02-23T23:41:21;10.75;;;2.33;;
37655;SDS011;23498;50.958;3.124;2023-02-23T23:43:51;12.40;;;2.47;;
37655;SDS011;23498;50.958;3.124;2023-02-23T23:46:20;13.68;;;2.72;;
37655;SDS011;23498;50.958;3.124;2023-02-23T23:48:57;12.80;;;2.22;;
37655;SDS011;23498;50.958;3.124;2023-02-23T23:51:44;20.05;;;3.35;;
37655;SDS011;23498;50.958;3.124;2023-02-23T23:54:19;10.85;;;2.20;;
37655;SDS011;23498;50.958;3.124;2023-02-23T23:56:48;12.35;;;2.35;;
37655;SDS011;23498;50.958;3.124;2023-02-23T23:59:15;8.88;;;1.80;;
